Time;durP1;ratioP1;P1;durP2;ratioP2;P2;SDS_P1;SDS_P2;PMS_P1;PMS_P2;Temp;Humidity;BMP_temperature;BMP_pressure;BME280_temperature;BME280_humidity;BME280_pressure;Samples;Min_cycle;Max_cycle;Signal;HPM_P1;HPM_P2
2023/12/20 00:01:54;;;;;;;7.78;1.90;;;6.40;99.90;;;;;;5071682;28;20492;-67
2023/12/20 00:04:20;;;;;;;5.57;1.63;;;6.40;99.90;;;;;;5088796;28;20047;-67
2023/12/20 00:06:45;;;;;;;14.03;1.23;;;6.50;99.90;;;;;;5095805;28;20126;-68
2023/12/20 00:09:11;;;;;;;10.10;1.33;;;6.40;99.90;;;;;;5087647;28;20522;-68
2023/12/20 00:11:36;;;;;;;14.90;1.87;;;6.40;99.90;;;;;;5087829;28;20040;-68
2023/12/20 00:14:02;;;;;;;9.40;1.47;;;6.40;99.90;;;;;;5080184;28;20241;-68
2023/12/20 00:16:28;;;;;;;8.17;1.50;;;6.50;99.90;;;;;;5089061;28;20028;-68
2023/12/20 00:18:53;;;;;;;8.80;1.27;;;6.40;99.90;;;;;;5085374;28;20333;-68
2023/12/20 00:21:19;;;;;;;6.50;1.43;;;6.40;99.90;;;;;;5086952;28;20238;-68
2023/12/20 00:23:44;;;;;;;7.53;1.37;;;6.40;99.90;;;;;;5086579;28;20036;-68
2023/12/20 00:26:10;;;;;;;11.23;2.10;;;6.30;99.90;;;;;;5085384;28;20083;-69
2023/12/20 00:28:35;;;;;;;9.67;1.70;;;6.30;99.90;;;;;;5084793;28;20032;-68
2023/12/20 00:31:01;;;;;;;8.90;2.13;;;6.30;99.90;;;;;;5079804;28;20504;-68
2023/12/20 00:33:27;;;;;;;10.90;1.15;;;6.30;99.90;;;;;;5073666;28;20128;-68
2023/12/20 00:35:53;;;;;;;12.43;2.07;;;6.30;99.90;;;;;;5085114;28;20111;-68
2023/12/20 00:38:18;;;;;;;12.90;1.65;;;6.20;99.90;;;;;;5084747;28;20048;-67
2023/12/20 00:40:44;;;;;;;10.07;3.10;;;6.20;99.90;;;;;;5084627;28;20147;-68
2023/12/20 00:43:10;;;;;;;8.10;1.03;;;6.20;99.90;;;;;;5084765;28;20052;-68
2023/12/20 00:45:39;;;;;;;7.93;1.33;;;6.20;99.90;;;;;;5087502;28;20043;-68
2023/12/20 00:48:05;;;;;;;10.70;1.75;;;6.20;99.90;;;;;;5085116;28;20497;-68
2023/12/20 00:50:30;;;;;;;13.18;1.52;;;6.20;99.90;;;;;;5078803;28;20075;-68
2023/12/20 00:52:56;;;;;;;11.47;2.07;;;6.20;99.90;;;;;;5078732;28;20045;-68
2023/12/20 00:55:22;;;;;;;6.37;1.40;;;6.10;99.90;;;;;;5074358;28;20032;-69
2023/12/20 00:57:47;;;;;;;6.80;1.43;;;6.20;99.90;;;;;;5084137;28;20281;-68
2023/12/20 01:00:13;;;;;;;15.10;2.03;;;6.10;99.90;;;;;;5083043;28;20067;-68
2023/12/20 01:02:39;;;;;;;10.27;2.42;;;6.20;99.90;;;;;;5078751;28;20044;-68
2023/12/20 01:05:07;;;;;;;;;;;6.10;99.90;;;;;;5078609;28;20109;-68
2023/12/20 01:07:32;;;;;;;16.27;1.90;;;6.10;99.90;;;;;;5086207;28;20512;-68
2023/12/20 01:09:58;;;;;;;12.82;3.78;;;6.10;99.90;;;;;;5080575;28;20051;-68
2023/12/20 01:12:24;;;;;;;11.67;1.57;;;6.10;99.90;;;;;;5089387;28;20054;-67
2023/12/20 01:14:49;;;;;;;15.43;1.97;;;6.10;99.90;;;;;;5085893;28;20396;-68
2023/12/20 01:17:15;;;;;;;11.17;1.73;;;6.10;99.90;;;;;;5076921;28;20044;-68
2023/12/20 01:19:41;;;;;;;8.40;1.97;;;6.20;99.90;;;;;;5089840;28;20114;-69
2023/12/20 01:22:06;;;;;;;17.23;1.98;;;6.20;99.90;;;;;;5084620;28;20532;-68
2023/12/20 01:24:32;;;;;;;9.83;2.67;;;6.20;99.90;;;;;;5085992;28;20044;-68
2023/12/20 01:26:58;;;;;;;18.67;2.50;;;6.20;99.90;;;;;;5089369;28;20138;-68
2023/12/20 01:29:26;;;;;;;9.90;2.70;;;6.20;99.90;;;;;;5089337;28;20028;-68
2023/12/20 01:31:52;;;;;;;15.40;1.57;;;6.20;99.90;;;;;;5083919;28;20408;-68
2023/12/20 01:34:17;;;;;;;16.57;1.80;;;6.30;99.90;;;;;;5069190;28;20044;-68
2023/12/20 01:36:43;;;;;;;17.83;2.65;;;6.30;99.90;;;;;;5085050;28;20036;-67
2023/12/20 01:39:09;;;;;;;12.47;2.50;;;6.30;99.90;;;;;;5088336;28;20055;-67
2023/12/20 01:41:34;;;;;;;21.70;3.00;;;6.30;99.90;;;;;;5084995;28;20032;-67
2023/12/20 01:44:00;;;;;;;15.60;2.90;;;6.30;99.90;;;;;;5081599;28;20044;-67
2023/12/20 01:46:29;;;;;;;14.87;2.00;;;6.40;99.90;;;;;;5083472;28;20046;-67
2023/12/20 01:48:54;;;;;;;12.45;2.38;;;6.40;99.90;;;;;;5080140;28;20044;-67
2023/12/20 01:51:21;;;;;;;20.07;2.30;;;6.40;99.90;;;;;;5085055;28;20059;-67
2023/12/20 01:53:47;;;;;;;18.20;1.70;;;6.50;99.90;;;;;;5082450;28;20044;-67
2023/12/20 01:56:14;;;;;;;9.50;2.13;;;6.50;99.90;;;;;;5085962;28;20548;-66
2023/12/20 01:58:46;;;;;;;12.70;2.25;;;6.40;99.90;;;;;;5087303;28;20044;-67
2023/12/20 02:01:13;;;;;;;10.75;2.22;;;6.40;99.90;;;;;;5078707;28;20047;-67
2023/12/20 02:03:41;;;;;;;11.98;2.10;;;6.40;99.90;;;;;;5080733;28;20440;-67
2023/12/20 02:06:08;;;;;;;14.32;3.20;;;6.50;99.90;;;;;;5082954;28;20040;-66
2023/12/20 02:08:34;;;;;;;15.77;2.90;;;6.50;99.90;;;;;;5077780;28;20117;-67
2023/12/20 02:11:00;;;;;;;25.80;2.50;;;6.50;99.90;;;;;;5086076;28;20088;-67
2023/12/20 02:13:26;;;;;;;9.17;2.97;;;6.60;99.90;;;;;;5085296;28;20426;-68
2023/12/20 02:15:52;;;;;;;16.50;2.40;;;6.60;99.90;;;;;;5062856;28;20097;-67
2023/12/20 02:18:18;;;;;;;14.23;2.72;;;6.70;99.90;;;;;;5077817;28;20045;-67
2023/12/20 02:20:44;;;;;;;15.07;2.30;;;6.70;99.90;;;;;;5087539;28;20514;-67
2023/12/20 02:23:10;;;;;;;23.87;3.67;;;6.80;99.90;;;;;;5085517;28;20047;-67
2023/12/20 02:25:35;;;;;;;16.10;3.17;;;6.80;99.90;;;;;;5083308;28;20492;-66
2023/12/20 02:28:02;;;;;;;9.03;3.07;;;6.80;99.90;;;;;;5078000;28;20121;-67
2023/12/20 02:30:28;;;;;;;16.25;3.60;;;6.80;99.90;;;;;;5084388;28;20081;-67
2023/12/20 02:32:53;;;;;;;13.43;2.37;;;6.80;99.90;;;;;;5083734;28;20135;-67
2023/12/20 02:35:19;;;;;;;16.80;3.45;;;6.80;99.90;;;;;;5091428;28;20128;-67
2023/12/20 02:37:45;;;;;;;14.83;3.00;;;6.80;99.90;;;;;;5088307;28;20039;-67
2023/12/20 02:40:10;;;;;;;19.27;2.70;;;6.80;99.90;;;;;;5086648;28;20122;-67
2023/12/20 02:42:36;;;;;;;14.90;2.33;;;6.80;99.90;;;;;;5083103;28;20434;-66
2023/12/20 02:45:02;;;;;;;19.03;3.03;;;6.80;99.90;;;;;;5081955;28;20606;-67
2023/12/20 02:47:29;;;;;;;17.37;2.77;;;6.80;99.90;;;;;;5068826;28;20445;-67
2023/12/20 02:49:55;;;;;;;16.15;2.85;;;6.80;99.90;;;;;;5085396;28;20636;-67
2023/12/20 02:52:26;;;;;;;13.83;2.67;;;6.80;99.90;;;;;;5085684;28;20041;-67
2023/12/20 02:54:51;;;;;;;20.77;2.50;;;6.80;99.90;;;;;;5090364;28;20292;-67
2023/12/20 02:57:20;;;;;;;12.65;2.95;;;6.80;99.90;;;;;;5091392;28;20101;-67
2023/12/20 02:59:45;;;;;;;14.77;2.93;;;6.80;99.90;;;;;;5092145;28;20036;-67
2023/12/20 03:02:11;;;;;;;22.00;3.10;;;6.80;99.90;;;;;;5087930;28;20040;-67
2023/12/20 03:04:37;;;;;;;22.40;3.37;;;6.80;99.90;;;;;;5089622;28;20032;-67
2023/12/20 03:07:05;;;;;;;19.60;3.93;;;6.80;99.90;;;;;;5083940;28;20461;-67
2023/12/20 03:09:30;;;;;;;18.52;2.53;;;6.80;99.90;;;;;;5091589;28;20036;-67
2023/12/20 03:11:56;;;;;;;15.17;2.50;;;6.90;99.90;;;;;;5089647;28;20097;-67
2023/12/20 03:14:22;;;;;;;14.57;2.30;;;6.90;99.90;;;;;;5089002;28;20044;-67
2023/12/20 03:16:49;;;;;;;17.37;3.27;;;6.90;99.90;;;;;;5085106;28;20110;-67
2023/12/20 03:19:16;;;;;;;14.80;2.33;;;7.00;99.90;;;;;;5084034;28;20036;-67
2023/12/20 03:21:41;;;;;;;;;;;7.00;99.90;;;;;;5081135;28;20107;-67
2023/12/20 03:24:07;;;;;;;19.00;2.40;;;7.00;99.90;;;;;;5087184;28;20328;-67
2023/12/20 03:26:32;;;;;;;21.70;2.97;;;7.00;99.90;;;;;;5092295;28;20101;-67
2023/12/20 03:28:58;;;;;;;17.67;3.47;;;7.00;99.90;;;;;;5081876;28;20206;-67
2023/12/20 03:31:24;;;;;;;19.87;3.33;;;7.00;99.90;;;;;;5091813;28;20454;-67
2023/12/20 03:33:50;;;;;;;21.37;3.13;;;7.00;99.90;;;;;;5076069;28;20039;-67
2023/12/20 03:36:16;;;;;;;13.85;2.50;;;7.10;99.90;;;;;;5069535;28;20312;-66
2023/12/20 03:38:42;;;;;;;19.23;2.00;;;7.10;99.90;;;;;;5088548;28;20087;-67
2023/12/20 03:41:08;;;;;;;10.43;2.10;;;7.10;99.90;;;;;;5088361;28;20044;-67
2023/12/20 03:43:33;;;;;;;23.97;3.57;;;7.10;99.90;;;;;;5088619;28;20410;-68
2023/12/20 03:45:59;;;;;;;13.03;2.30;;;7.10;99.90;;;;;;5084289;28;20047;-69
2023/12/20 03:48:25;;;;;;;16.35;3.17;;;7.10;99.90;;;;;;5087743;28;20051;-68
2023/12/20 03:50:51;;;;;;;19.38;2.75;;;7.20;99.90;;;;;;5082087;28;20032;-68
2023/12/20 03:53:17;;;;;;;10.63;2.30;;;7.10;99.90;;;;;;5088251;28;20132;-68
2023/12/20 03:55:42;;;;;;;10.60;2.90;;;7.20;99.90;;;;;;5084086;28;20039;-68
2023/12/20 03:58:08;;;;;;;12.87;3.47;;;7.20;99.90;;;;;;5082791;28;20036;-68
2023/12/20 04:00:34;;;;;;;17.48;2.88;;;7.20;99.90;;;;;;5088747;28;20400;-68
2023/12/20 04:02:59;;;;;;;11.20;3.00;;;7.20;99.90;;;;;;5082651;28;20049;-68
2023/12/20 04:05:25;;;;;;;12.43;2.80;;;7.20;99.90;;;;;;5082812;28;20109;-68
2023/12/20 04:07:50;;;;;;;24.07;3.27;;;7.20;99.90;;;;;;5082467;28;20039;-67
2023/12/20 04:10:18;;;;;;;21.67;3.87;;;7.20;99.90;;;;;;5083613;28;20147;-67
2023/12/20 04:12:44;;;;;;;16.60;2.67;;;7.20;99.90;;;;;;5086609;28;20439;-67
2023/12/20 04:15:12;;;;;;;25.77;4.10;;;7.20;99.90;;;;;;5084348;28;20107;-68
2023/12/20 04:17:40;;;;;;;16.67;2.78;;;7.20;99.90;;;;;;5085249;28;20071;-68
2023/12/20 04:20:07;;;;;;;12.77;3.00;;;7.20;99.90;;;;;;5085220;28;20039;-68
2023/12/20 04:22:32;;;;;;;10.95;1.95;;;7.20;99.90;;;;;;5071211;28;20100;-69
2023/12/20 04:25:01;;;;;;;15.38;3.35;;;7.20;99.90;;;;;;5082234;28;20044;-69
2023/12/20 04:27:26;;;;;;;11.87;2.83;;;7.30;99.90;;;;;;5090534;28;20047;-69
2023/12/20 04:29:52;;;;;;;15.27;3.30;;;7.30;99.90;;;;;;5089294;28;20523;-69
2023/12/20 04:32:17;;;;;;;12.33;1.90;;;7.30;99.90;;;;;;5080672;28;20050;-68
2023/12/20 04:34:43;;;;;;;20.37;3.17;;;7.30;99.90;;;;;;5085744;28;20451;-69
2023/12/20 04:37:08;;;;;;;15.70;2.83;;;7.30;99.90;;;;;;5083516;28;20151;-69
2023/12/20 04:39:34;;;;;;;22.83;3.00;;;7.30;99.90;;;;;;5087474;28;20473;-69
2023/12/20 04:42:00;;;;;;;17.93;3.17;;;7.30;99.90;;;;;;5079963;28;20040;-69
2023/12/20 04:44:26;;;;;;;15.93;3.30;;;7.30;99.90;;;;;;5088777;28;20453;-69
2023/12/20 04:46:56;;;;;;;;;;;7.30;99.90;;;;;;5089247;28;20055;-68
2023/12/20 04:49:22;;;;;;;11.90;2.83;;;7.30;99.90;;;;;;5080948;28;19919;-69
2023/12/20 04:51:47;;;;;;;14.97;2.70;;;7.30;99.90;;;;;;5082667;28;20361;-68
2023/12/20 04:54:13;;;;;;;17.03;3.17;;;7.40;99.90;;;;;;5082697;28;20059;-69
2023/12/20 04:56:39;;;;;;;18.58;2.63;;;7.30;99.90;;;;;;5082595;28;20044;-69
2023/12/20 04:59:05;;;;;;;10.57;2.43;;;7.40;99.90;;;;;;5066968;28;20044;-69
2023/12/20 05:01:31;;;;;;;19.33;2.88;;;7.40;99.90;;;;;;5077920;28;20040;-69
2023/12/20 05:03:56;;;;;;;11.97;1.97;;;7.30;99.90;;;;;;5083036;28;20497;-68
2023/12/20 05:06:22;;;;;;;16.80;3.10;;;7.40;99.90;;;;;;5087458;28;20072;-69
2023/12/20 05:08:47;;;;;;;16.30;3.57;;;7.40;99.90;;;;;;5084987;28;20043;-69
2023/12/20 05:11:15;;;;;;;9.20;2.90;;;7.40;99.90;;;;;;5084877;28;20043;-69
2023/12/20 05:13:40;;;;;;;13.60;2.42;;;7.40;99.90;;;;;;5078783;28;20142;-69
2023/12/20 05:16:06;;;;;;;18.33;2.87;;;7.50;99.90;;;;;;5085526;28;20511;-69
2023/12/20 05:18:31;;;;;;;14.27;2.63;;;7.40;99.90;;;;;;5073599;28;20083;-68
2023/12/20 05:20:58;;;;;;;22.50;3.43;;;7.40;99.90;;;;;;5073381;28;20435;-68
2023/12/20 05:23:23;;;;;;;20.40;3.15;;;7.50;99.90;;;;;;5086351;28;20046;-68
2023/12/20 05:25:49;;;;;;;25.83;3.33;;;7.50;99.90;;;;;;5076920;28;20048;-69
2023/12/20 05:28:15;;;;;;;21.70;4.00;;;7.50;99.90;;;;;;5091867;27;20040;-69
2023/12/20 05:30:46;;;;;;;15.90;2.85;;;7.50;99.90;;;;;;5076957;28;20040;-69
2023/12/20 05:33:11;;;;;;;21.02;3.40;;;7.50;99.90;;;;;;5085111;28;20126;-69
2023/12/20 05:35:37;;;;;;;20.23;2.93;;;7.50;99.90;;;;;;5076853;28;20131;-69
2023/12/20 05:38:03;;;;;;;14.00;3.27;;;7.40;99.90;;;;;;5081618;28;20105;-68
2023/12/20 05:40:28;;;;;;;14.67;2.73;;;7.40;99.90;;;;;;5085129;28;20447;-69
2023/12/20 05:42:54;;;;;;;13.67;1.90;;;7.50;99.90;;;;;;5079604;28;20282;-69
2023/12/20 05:45:20;;;;;;;11.20;2.93;;;7.50;99.90;;;;;;5081545;28;20227;-69
2023/12/20 05:47:45;;;;;;;24.57;3.33;;;7.60;99.90;;;;;;5082059;28;20044;-68
2023/12/20 05:50:11;;;;;;;22.53;2.93;;;7.60;99.90;;;;;;5086966;28;20090;-68
2023/12/20 05:52:36;;;;;;;18.30;2.40;;;7.60;99.90;;;;;;5077756;28;20476;-68
2023/12/20 05:55:02;;;;;;;20.43;2.63;;;7.60;99.90;;;;;;5072372;28;20048;-69
2023/12/20 05:57:28;;;;;;;16.13;3.25;;;7.60;99.90;;;;;;5060334;28;20432;-67
2023/12/20 05:59:53;;;;;;;12.87;2.47;;;7.70;99.90;;;;;;5082685;28;20071;-67
2023/12/20 06:02:28;;;;;;;19.73;2.85;;;7.70;99.90;;;;;;5080970;28;20044;-68
2023/12/20 06:04:53;;;;;;;15.43;3.27;;;7.70;99.90;;;;;;5082978;28;20085;-67
2023/12/20 06:07:19;;;;;;;12.03;2.57;;;7.80;99.90;;;;;;5084865;28;20043;-68
2023/12/20 06:09:45;;;;;;;32.22;3.25;;;7.80;99.90;;;;;;5081628;28;20039;-68
2023/12/20 06:12:10;;;;;;;17.93;2.87;;;7.80;99.90;;;;;;5085479;28;20495;-68
2023/12/20 06:14:36;;;;;;;17.83;3.17;;;7.90;99.90;;;;;;5078719;28;20048;-68
2023/12/20 06:17:02;;;;;;;20.73;3.23;;;7.80;99.90;;;;;;5077781;28;20665;-68
2023/12/20 06:19:28;;;;;;;24.50;3.05;;;7.80;99.90;;;;;;5088504;28;20036;-67
2023/12/20 06:21:54;;;;;;;13.38;2.28;;;7.90;99.90;;;;;;5065110;28;20109;-68
2023/12/20 06:24:22;;;;;;;17.33;3.10;;;7.90;99.90;;;;;;5078214;28;20557;-68
2023/12/20 06:26:50;;;;;;;13.40;2.90;;;8.00;99.90;;;;;;5085799;28;20043;-68
2023/12/20 06:29:16;;;;;;;14.32;3.53;;;7.90;99.90;;;;;;5078669;28;20504;-69
2023/12/20 06:31:41;;;;;;;18.33;2.77;;;8.00;99.90;;;;;;5087217;28;20255;-68
2023/12/20 06:34:07;;;;;;;17.83;2.83;;;8.00;99.90;;;;;;5083868;28;20505;-68
2023/12/20 06:36:33;;;;;;;13.52;2.92;;;8.00;99.90;;;;;;5086360;28;20400;-68
2023/12/20 06:38:58;;;;;;;14.53;3.30;;;8.00;99.90;;;;;;5084859;28;20045;-69
2023/12/20 06:41:26;;;;;;;13.83;2.43;;;8.00;99.90;;;;;;5083409;28;20036;-69
2023/12/20 06:43:53;;;;;;;17.83;2.80;;;8.00;99.90;;;;;;5086270;28;20031;-68
2023/12/20 06:46:18;;;;;;;18.90;3.25;;;8.00;99.90;;;;;;5077167;28;20059;-68
2023/12/20 06:48:44;;;;;;;20.57;2.70;;;8.00;99.90;;;;;;5085697;28;20050;-68
2023/12/20 06:51:15;;;;;;;23.43;2.80;;;8.00;99.90;;;;;;5076945;28;20206;-68
2023/12/20 06:53:41;;;;;;;13.77;2.92;;;8.10;99.90;;;;;;5080924;28;20706;-69
2023/12/20 06:56:07;;;;;;;16.07;3.27;;;8.00;99.90;;;;;;5084995;28;20036;-68
2023/12/20 06:58:33;;;;;;;16.45;3.03;;;8.00;99.90;;;;;;5077643;28;20036;-68
2023/12/20 07:00:58;;;;;;;21.83;2.77;;;8.10;99.90;;;;;;5073719;28;20123;-68
2023/12/20 07:03:24;;;;;;;11.20;2.70;;;8.00;99.90;;;;;;5080910;28;20291;-69
2023/12/20 07:05:52;;;;;;;17.67;4.05;;;8.00;99.90;;;;;;5081076;28;20044;-69
2023/12/20 07:08:19;;;;;;;20.03;3.87;;;8.10;99.90;;;;;;5082828;28;20046;-68
2023/12/20 07:10:44;;;;;;;18.80;2.95;;;8.10;99.90;;;;;;5085171;28;20051;-69
2023/12/20 07:13:10;;;;;;;15.13;2.87;;;8.10;99.90;;;;;;5085828;28;20039;-69
2023/12/20 07:15:36;;;;;;;25.93;3.10;;;8.10;99.90;;;;;;5081462;28;20374;-68
2023/12/20 07:18:02;;;;;;;19.15;4.45;;;8.20;99.90;;;;;;5079409;28;20450;-68
2023/12/20 07:20:28;;;;;;;17.20;3.20;;;8.10;99.90;;;;;;5082960;28;20048;-68
2023/12/20 07:22:54;;;;;;;20.73;4.00;;;8.20;99.90;;;;;;5081266;28;21597;-68
2023/12/20 07:25:20;;;;;;;16.25;3.25;;;8.20;99.90;;;;;;5082525;28;20059;-68
2023/12/20 07:27:46;;;;;;;19.23;3.17;;;8.20;99.90;;;;;;5086583;28;20052;-69
2023/12/20 07:30:12;;;;;;;15.97;3.47;;;8.20;99.90;;;;;;5083651;28;20077;-68
2023/12/20 07:32:37;;;;;;;16.52;2.92;;;8.10;99.90;;;;;;5084315;28;20131;-68
2023/12/20 07:35:03;;;;;;;18.80;2.70;;;8.10;99.90;;;;;;5079902;28;20040;-68
2023/12/20 07:37:29;;;;;;;16.92;3.78;;;8.10;99.90;;;;;;5082975;28;20500;-68
2023/12/20 07:39:54;;;;;;;18.20;2.73;;;8.00;99.90;;;;;;5080842;28;20040;-68
2023/12/20 07:42:21;;;;;;;20.43;3.53;;;8.10;99.90;;;;;;5080710;28;20511;-68
2023/12/20 07:44:47;;;;;;;33.10;5.13;;;8.00;99.90;;;;;;5084774;28;20050;-69
2023/12/20 07:47:21;;;;;;;11.50;2.73;;;8.00;99.90;;;;;;5089177;28;20037;-74
2023/12/20 07:49:51;;;;;;;17.05;2.95;;;8.00;99.90;;;;;;5081744;28;20145;-68
2023/12/20 07:52:17;;;;;;;14.15;3.03;;;8.10;99.90;;;;;;5085685;28;20039;-68
2023/12/20 07:54:42;;;;;;;9.55;2.88;;;8.10;99.90;;;;;;5089657;28;20487;-67
2023/12/20 07:57:08;;;;;;;15.93;2.77;;;8.10;99.90;;;;;;5080169;28;20548;-67
2023/12/20 07:59:34;;;;;;;21.27;3.53;;;8.10;99.90;;;;;;5066916;28;20036;-67
2023/12/20 08:01:59;;;;;;;11.53;2.90;;;8.20;99.90;;;;;;5081926;28;20040;-67
2023/12/20 08:04:25;;;;;;;20.40;2.93;;;8.20;99.90;;;;;;5094061;28;20083;-67
2023/12/20 08:06:50;;;;;;;25.33;2.60;;;8.20;99.90;;;;;;5084249;28;20456;-67
2023/12/20 08:09:16;;;;;;;9.20;2.30;;;8.20;99.90;;;;;;5077358;28;20044;-67
2023/12/20 08:11:45;;;;;;;14.30;2.03;;;8.20;99.90;;;;;;5093016;28;20484;-68
2023/12/20 08:14:11;;;;;;;10.70;1.48;;;8.10;99.90;;;;;;5086395;28;20044;-67
2023/12/20 08:16:37;;;;;;;5.73;0.83;;;7.90;99.90;;;;;;5071546;28;20118;-67
2023/12/20 08:19:02;;;;;;;4.77;0.90;;;7.80;99.90;;;;;;5080976;28;20028;-67
2023/12/20 08:21:28;;;;;;;4.43;1.13;;;7.60;99.90;;;;;;5087101;28;20495;-67
2023/12/20 08:23:54;;;;;;;11.40;2.30;;;7.50;99.90;;;;;;5088281;28;20046;-67
2023/12/20 08:26:21;;;;;;;21.37;3.57;;;7.50;99.90;;;;;;5074327;28;20438;-67
2023/12/20 08:28:47;;;;;;;14.90;2.92;;;7.50;99.90;;;;;;5080160;28;20039;-67
2023/12/20 08:31:16;;;;;;;14.00;2.97;;;7.60;99.90;;;;;;5083741;28;20063;-67
2023/12/20 08:33:47;;;;;;;15.20;2.78;;;7.50;99.90;;;;;;5084708;28;20079;-67
2023/12/20 08:36:13;;;;;;;12.65;2.38;;;7.60;99.90;;;;;;5082831;28;20044;-67
2023/12/20 08:38:39;;;;;;;12.98;2.83;;;7.70;99.90;;;;;;5085546;28;20036;-68
2023/12/20 08:41:07;;;;;;;15.23;2.30;;;7.70;99.90;;;;;;5085747;28;20050;-67
2023/12/20 08:43:34;;;;;;;14.20;2.78;;;7.70;99.90;;;;;;5090578;28;20040;-68
2023/12/20 08:46:00;;;;;;;19.73;3.47;;;7.70;99.90;;;;;;5091748;28;20105;-67
2023/12/20 08:48:26;;;;;;;20.53;3.10;;;7.80;99.90;;;;;;5085890;28;20044;-67
2023/12/20 08:50:52;;;;;;;23.83;4.43;;;7.90;99.90;;;;;;5087457;28;20265;-67
2023/12/20 08:53:18;;;;;;;25.27;3.35;;;7.90;99.90;;;;;;5088266;28;20039;-66
2023/12/20 08:55:44;;;;;;;;;;;7.90;99.90;;;;;;5085705;28;20040;-67
2023/12/20 08:58:10;;;;;;;14.40;3.55;;;8.00;99.90;;;;;;5076664;28;20392;-67
2023/12/20 09:00:36;;;;;;;20.30;3.40;;;8.00;99.90;;;;;;5078547;28;20074;-67
2023/12/20 09:03:02;;;;;;;12.33;2.67;;;8.00;99.90;;;;;;5095479;28;20487;-68
2023/12/20 09:05:28;;;;;;;20.60;3.60;;;8.10;99.90;;;;;;5080141;28;20097;-67
2023/12/20 09:07:54;;;;;;;9.93;2.65;;;8.20;99.90;;;;;;5083216;28;20115;-67
2023/12/20 09:10:22;;;;;;;20.53;3.67;;;8.20;99.90;;;;;;5082857;28;20108;-67
2023/12/20 09:12:54;;;;;;;8.85;1.98;;;8.30;99.90;;;;;;5088595;28;20672;-67
2023/12/20 09:15:19;;;;;;;4.13;0.80;;;8.20;99.90;;;;;;5085027;28;20063;-68
2023/12/20 09:17:45;;;;;;;4.67;1.17;;;8.00;99.90;;;;;;5077355;28;20036;-67
2023/12/20 09:20:11;;;;;;;6.93;0.60;;;7.70;99.90;;;;;;5089603;28;20032;-67
2023/12/20 09:22:38;;;;;;;3.70;0.67;;;7.50;99.90;;;;;;5083789;28;20562;-68
2023/12/20 09:25:04;;;;;;;3.80;0.85;;;7.30;99.90;;;;;;5079959;28;20097;-67
2023/12/20 09:27:30;;;;;;;5.93;0.93;;;7.30;99.90;;;;;;5085341;28;20516;-67
2023/12/20 09:29:55;;;;;;;5.90;1.10;;;7.10;99.90;;;;;;5083350;28;20134;-68
2023/12/20 09:32:21;;;;;;;9.20;1.20;;;7.00;99.90;;;;;;5074732;28;20284;-67
2023/12/20 09:34:47;;;;;;;3.58;0.60;;;6.90;99.90;;;;;;5069736;28;20036;-67
2023/12/20 09:37:13;;;;;;;9.20;1.45;;;6.80;99.90;;;;;;5083242;28;20044;-68
2023/12/20 09:39:39;;;;;;;4.28;0.90;;;6.80;99.90;;;;;;5069643;28;20131;-67
2023/12/20 09:42:06;;;;;;;5.00;0.60;;;6.80;99.90;;;;;;5084873;28;20043;-67
2023/12/20 09:44:34;;;;;;;6.15;1.02;;;6.70;99.90;;;;;;5065690;28;20121;-67
2023/12/20 09:47:05;;;;;;;7.45;1.48;;;6.70;99.90;;;;;;5085057;28;20051;-67
2023/12/20 09:49:32;;;;;;;8.25;1.65;;;6.60;99.90;;;;;;5077634;28;20063;-67
2023/12/20 09:51:59;;;;;;;4.35;0.70;;;6.60;99.90;;;;;;5063202;28;20143;-67
2023/12/20 09:54:26;;;;;;;4.93;1.30;;;6.60;99.90;;;;;;5084371;28;20040;-67
2023/12/20 09:56:52;;;;;;;10.98;1.77;;;6.60;99.90;;;;;;5086400;28;20051;-67
2023/12/20 09:59:18;;;;;;;7.33;1.83;;;6.70;99.90;;;;;;5091145;28;20040;-67
2023/12/20 10:01:44;;;;;;;5.20;0.90;;;6.70;99.90;;;;;;5085509;28;20130;-67
2023/12/20 10:04:12;;;;;;;9.45;1.30;;;6.70;99.90;;;;;;5082918;28;20036;-68
2023/12/20 10:06:42;;;;;;;5.63;1.20;;;6.70;99.90;;;;;;5088796;28;20432;-68
2023/12/20 10:09:09;;;;;;;3.72;0.93;;;6.70;99.90;;;;;;5066706;28;20051;-67
2023/12/20 10:11:39;;;;;;;9.43;1.42;;;6.70;99.90;;;;;;5083492;28;20074;-68
2023/12/20 10:14:06;;;;;;;10.80;1.05;;;6.70;99.90;;;;;;5088608;28;20052;-67
2023/12/20 10:16:33;;;;;;;6.97;1.27;;;6.70;99.90;;;;;;5087537;28;20048;-67
2023/12/20 10:18:59;;;;;;;;;;;6.70;99.90;;;;;;5084773;28;20720;-68
2023/12/20 10:21:26;;;;;;;14.52;1.40;;;6.70;99.90;;;;;;5066457;28;19927;-67
2023/12/20 10:23:56;;;;;;;6.82;1.25;;;6.70;99.90;;;;;;5082771;28;20455;-67
2023/12/20 10:26:26;;;;;;;7.30;1.55;;;6.80;99.90;;;;;;5085392;28;20498;-75
2023/12/20 10:28:54;;;;;;;11.02;1.67;;;6.90;99.90;;;;;;5083051;28;20040;-67
2023/12/20 10:31:32;;;;;;;8.70;1.38;;;7.00;99.90;;;;;;5087321;28;20051;-67
2023/12/20 10:34:00;;;;;;;10.15;1.80;;;7.00;99.90;;;;;;5091205;28;20407;-68
2023/12/20 10:36:27;;;;;;;6.60;1.10;;;7.10;99.90;;;;;;5078431;28;20037;-67
2023/12/20 10:38:54;;;;;;;7.72;0.98;;;7.10;99.90;;;;;;5077839;28;20048;-67
2023/12/20 10:41:29;;;;;;;9.18;1.80;;;7.10;99.90;;;;;;5073709;28;20135;-66
2023/12/20 10:43:59;;;;;;;5.43;1.45;;;7.10;99.90;;;;;;5082716;28;20166;-68
2023/12/20 10:46:28;;;;;;;5.63;1.35;;;7.20;99.90;;;;;;5083083;28;20044;-67
2023/12/20 10:48:54;;;;;;;7.78;1.45;;;7.20;99.90;;;;;;5083406;28;20442;-68
2023/12/20 10:51:21;;;;;;;8.90;1.10;;;7.20;99.90;;;;;;5084999;28;20133;-67
2023/12/20 10:53:51;;;;;;;5.70;1.17;;;7.20;99.90;;;;;;5081573;28;20046;-67
2023/12/20 10:56:18;;;;;;;7.88;0.98;;;7.20;99.90;;;;;;5066955;28;20542;-67
2023/12/20 10:58:45;;;;;;;10.23;1.35;;;7.30;99.90;;;;;;5086194;28;20426;-67
2023/12/20 11:01:14;;;;;;;9.25;1.10;;;7.30;99.90;;;;;;5077607;28;20048;-67
2023/12/20 11:03:53;;;;;;;9.93;2.08;;;7.40;99.90;;;;;;5063990;28;20040;-67
2023/12/20 11:06:37;;;;;;;9.52;1.83;;;7.30;99.90;;;;;;5086986;28;20044;-67
2023/12/20 11:09:27;;;;;;;9.65;1.33;;;7.30;99.90;;;;;;5078786;28;20454;-69
2023/12/20 11:12:08;;;;;;;5.07;1.50;;;7.40;99.90;;;;;;5081898;28;20508;-68
2023/12/20 11:14:47;;;;;;;11.18;1.92;;;7.50;99.90;;;;;;5081614;28;20052;-68
2023/12/20 11:17:16;;;;;;;8.30;1.77;;;7.50;99.90;;;;;;5085383;28;20051;-68
2023/12/20 11:19:57;;;;;;;12.20;1.73;;;7.60;99.90;;;;;;5086874;28;20047;-68
2023/12/20 11:22:27;;;;;;;9.40;1.35;;;7.60;99.90;;;;;;5070601;28;20127;-68
2023/12/20 11:24:55;;;;;;;8.70;1.27;;;7.60;99.90;;;;;;5070205;28;20555;-67
2023/12/20 11:27:21;;;;;;;13.95;1.98;;;7.70;99.90;;;;;;5083370;28;20109;-68
2023/12/20 11:29:56;;;;;;;13.93;1.57;;;7.70;99.90;;;;;;5087884;28;20039;-68
2023/12/20 11:32:28;;;;;;;8.15;2.08;;;7.70;99.90;;;;;;5087432;28;20080;-67
2023/12/20 11:35:10;;;;;;;7.63;1.52;;;7.80;99.90;;;;;;5081016;28;20400;-67
2023/12/20 11:37:37;;;;;;;5.28;1.35;;;7.80;99.90;;;;;;5080221;28;20089;-68
2023/12/20 11:40:07;;;;;;;20.60;1.60;;;7.90;99.90;;;;;;5081764;28;20343;-68
2023/12/20 11:42:48;;;;;;;5.63;1.75;;;7.90;99.90;;;;;;5087481;28;20090;-68
2023/12/20 11:45:16;;;;;;;5.63;1.65;;;7.90;99.90;;;;;;5085142;28;20112;-68
2023/12/20 11:47:53;;;;;;;6.00;1.30;;;7.90;99.90;;;;;;5092258;28;20035;-69
2023/12/20 11:50:19;;;;;;;12.10;1.73;;;8.00;99.90;;;;;;5086506;28;20077;-68
2023/12/20 11:52:45;;;;;;;6.57;1.52;;;7.90;99.90;;;;;;5083237;28;20051;-68
2023/12/20 11:55:11;;;;;;;7.50;1.47;;;8.00;99.90;;;;;;5082538;28;20617;-68
2023/12/20 11:57:37;;;;;;;10.10;1.10;;;8.00;99.90;;;;;;5082366;28;20082;-68
2023/12/20 12:00:06;;;;;;;13.55;1.55;;;7.90;99.90;;;;;;5083596;28;20063;-68
2023/12/20 12:02:32;;;;;;;10.82;1.60;;;8.00;99.90;;;;;;5087336;28;20072;-68
2023/12/20 12:04:59;;;;;;;5.28;1.50;;;8.00;99.90;;;;;;5087287;28;20048;-67
2023/12/20 12:07:25;;;;;;;7.88;1.35;;;8.00;99.90;;;;;;5086673;28;20467;-68
2023/12/20 12:09:52;;;;;;;11.20;1.77;;;8.00;99.90;;;;;;5078951;28;20036;-68
2023/12/20 12:12:19;;;;;;;10.18;1.25;;;8.00;99.90;;;;;;5089170;28;20512;-68
2023/12/20 12:14:45;;;;;;;4.18;1.15;;;8.00;99.90;;;;;;5080181;28;20044;-69
2023/12/20 12:17:14;;;;;;;10.63;1.60;;;8.00;99.90;;;;;;5083930;28;20549;-68
2023/12/20 12:19:40;;;;;;;7.43;1.27;;;8.00;99.90;;;;;;5080465;28;20033;-68
2023/12/20 12:22:09;;;;;;;8.90;1.63;;;8.00;99.90;;;;;;5081908;28;20036;-68
2023/12/20 12:24:35;;;;;;;7.38;1.40;;;8.00;99.90;;;;;;5084699;28;20050;-69
2023/12/20 12:27:00;;;;;;;16.60;2.03;;;8.00;99.90;;;;;;5086580;28;20048;-68
2023/12/20 12:29:27;;;;;;;8.03;1.77;;;7.90;99.90;;;;;;5084973;28;20066;-68
2023/12/20 12:31:53;;;;;;;7.30;1.73;;;7.90;99.90;;;;;;5072981;28;20440;-68
2023/12/20 12:34:18;;;;;;;7.93;1.97;;;7.90;99.90;;;;;;5082225;28;20052;-68
2023/12/20 12:36:45;;;;;;;11.57;2.07;;;7.90;99.90;;;;;;5079901;28;20028;-68
2023/12/20 12:39:17;;;;;;;10.75;1.67;;;7.90;99.90;;;;;;5061954;28;20226;-68
2023/12/20 12:41:42;;;;;;;6.05;1.00;;;7.80;99.90;;;;;;5080146;28;20048;-68
2023/12/20 12:44:08;;;;;;;18.70;2.17;;;7.80;99.90;;;;;;5086556;28;20036;-68
2023/12/20 12:46:34;;;;;;;8.68;1.65;;;7.70;99.90;;;;;;5063283;28;20138;-68
2023/12/20 12:49:00;;;;;;;10.63;1.37;;;7.70;99.90;;;;;;5085712;28;20047;-68